sensor_id;sensor_type;location;lat;lon;timestamp;temperature;humidity
975;DHT22;6115;49.296;10.602;2022-08-07T00:01:53;14.60;47.10
975;DHT22;6115;49.296;10.602;2022-08-07T00:06:54;14.60;47.60
975;DHT22;6115;49.296;10.602;2022-08-07T00:11:55;14.50;47.20
975;DHT22;6115;49.296;10.602;2022-08-07T00:16:59;14.50;47.30
975;DHT22;6115;49.296;10.602;2022-08-07T00:22:01;14.30;48.00
975;DHT22;6115;49.296;10.602;2022-08-07T00:27:01;14.30;48.50
975;DHT22;6115;49.296;10.602;2022-08-07T00:32:03;14.20;48.80
975;DHT22;6115;49.296;10.602;2022-08-07T00:37:03;14.10;48.80
975;DHT22;6115;49.296;10.602;2022-08-07T00:42:04;14.00;48.90
975;DHT22;6115;49.296;10.602;2022-08-07T00:47:05;13.90;49.40
975;DHT22;6115;49.296;10.602;2022-08-07T00:52:08;13.90;49.40
975;DHT22;6115;49.296;10.602;2022-08-07T00:57:09;13.90;50.00
975;DHT22;6115;49.296;10.602;2022-08-07T01:02:11;14.00;49.50
975;DHT22;6115;49.296;10.602;2022-08-07T01:07:12;14.10;49.50
975;DHT22;6115;49.296;10.602;2022-08-07T01:12:16;14.10;49.50
975;DHT22;6115;49.296;10.602;2022-08-07T01:17:20;13.90;49.60
975;DHT22;6115;49.296;10.602;2022-08-07T01:22:21;13.90;49.90
975;DHT22;6115;49.296;10.602;2022-08-07T01:27:22;13.90;49.50
975;DHT22;6115;49.296;10.602;2022-08-07T01:32:25;13.90;50.50
975;DHT22;6115;49.296;10.602;2022-08-07T01:37:26;13.80;50.70
975;DHT22;6115;49.296;10.602;2022-08-07T01:42:27;13.80;50.70
975;DHT22;6115;49.296;10.602;2022-08-07T01:47:28;13.80;50.30
975;DHT22;6115;49.296;10.602;2022-08-07T01:52:30;13.70;50.40
975;DHT22;6115;49.296;10.602;2022-08-07T01:57:34;13.80;50.70
975;DHT22;6115;49.296;10.602;2022-08-07T02:02:51;13.70;50.80
975;DHT22;6115;49.296;10.602;2022-08-07T02:07:53;13.60;51.60
975;DHT22;6115;49.296;10.602;2022-08-07T02:12:58;13.60;52.00
975;DHT22;6115;49.296;10.602;2022-08-07T02:18:00;13.50;52.20
975;DHT22;6115;49.296;10.602;2022-08-07T02:23:04;13.40;52.30
975;DHT22;6115;49.296;10.602;2022-08-07T02:28:05;13.20;53.10
975;DHT22;6115;49.296;10.602;2022-08-07T02:33:07;13.00;53.00
975;DHT22;6115;49.296;10.602;2022-08-07T02:38:10;13.00;53.00
975;DHT22;6115;49.296;10.602;2022-08-07T02:43:12;13.00;53.10
975;DHT22;6115;49.296;10.602;2022-08-07T02:48:13;12.90;53.00
975;DHT22;6115;49.296;10.602;2022-08-07T02:53:20;12.90;53.00
975;DHT22;6115;49.296;10.602;2022-08-07T02:58:22;12.90;53.00
975;DHT22;6115;49.296;10.602;2022-08-07T03:03:30;12.80;53.10
975;DHT22;6115;49.296;10.602;2022-08-07T03:08:32;12.80;53.50
975;DHT22;6115;49.296;10.602;2022-08-07T03:13:33;12.70;54.10
975;DHT22;6115;49.296;10.602;2022-08-07T03:18:34;12.70;54.30
975;DHT22;6115;49.296;10.602;2022-08-07T03:23:37;12.60;54.40
975;DHT22;6115;49.296;10.602;2022-08-07T03:28:39;12.50;54.80
975;DHT22;6115;49.296;10.602;2022-08-07T03:33:41;12.40;54.70
975;DHT22;6115;49.296;10.602;2022-08-07T03:38:44;12.40;54.60
975;DHT22;6115;49.296;10.602;2022-08-07T03:43:45;12.40;54.50
975;DHT22;6115;49.296;10.602;2022-08-07T03:48:47;12.40;54.70
975;DHT22;6115;49.296;10.602;2022-08-07T03:53:48;12.50;54.70
975;DHT22;6115;49.296;10.602;2022-08-07T03:58:50;12.40;54.50
975;DHT22;6115;49.296;10.602;2022-08-07T04:03:51;12.40;54.70
975;DHT22;6115;49.296;10.602;2022-08-07T04:08:52;12.30;55.00
975;DHT22;6115;49.296;10.602;2022-08-07T04:13:55;12.30;55.10
975;DHT22;6115;49.296;10.602;2022-08-07T04:18:56;12.30;55.10
975;DHT22;6115;49.296;10.602;2022-08-07T04:23:57;12.30;55.20
975;DHT22;6115;49.296;10.602;2022-08-07T04:28:58;12.30;55.30
975;DHT22;6115;49.296;10.602;2022-08-07T04:33:58;12.30;55.60
975;DHT22;6115;49.296;10.602;2022-08-07T04:39:01;12.30;55.50
975;DHT22;6115;49.296;10.602;2022-08-07T04:44:01;12.40;55.70
975;DHT22;6115;49.296;10.602;2022-08-07T04:49:21;12.40;55.70
975;DHT22;6115;49.296;10.602;2022-08-07T04:54:50;12.40;55.90
975;DHT22;6115;49.296;10.602;2022-08-07T05:00:14;12.40;56.10
975;DHT22;6115;49.296;10.602;2022-08-07T05:05:48;12.40;56.10
975;DHT22;6115;49.296;10.602;2022-08-07T05:10:59;12.50;55.90
975;DHT22;6115;49.296;10.602;2022-08-07T05:16:05;12.40;55.60
975;DHT22;6115;49.296;10.602;2022-08-07T05:21:08;12.50;55.20
975;DHT22;6115;49.296;10.602;2022-08-07T05:26:16;12.60;55.50
975;DHT22;6115;49.296;10.602;2022-08-07T05:31:19;12.80;55.30
975;DHT22;6115;49.296;10.602;2022-08-07T05:36:21;12.90;55.00
975;DHT22;6115;49.296;10.602;2022-08-07T05:41:23;13.10;54.10
975;DHT22;6115;49.296;10.602;2022-08-07T05:46:27;13.30;53.90
975;DHT22;6115;49.296;10.602;2022-08-07T05:51:31;13.50;53.50
975;DHT22;6115;49.296;10.602;2022-08-07T05:56:33;13.70;53.60
975;DHT22;6115;49.296;10.602;2022-08-07T06:01:34;13.90;52.30
975;DHT22;6115;49.296;10.602;2022-08-07T06:06:35;14.10;51.90
975;DHT22;6115;49.296;10.602;2022-08-07T06:11:36;14.30;51.90
975;DHT22;6115;49.296;10.602;2022-08-07T06:16:37;14.50;50.70
975;DHT22;6115;49.296;10.602;2022-08-07T06:21:38;14.70;50.50
975;DHT22;6115;49.296;10.602;2022-08-07T06:26:40;15.00;49.60
975;DHT22;6115;49.296;10.602;2022-08-07T06:31:40;15.20;49.30
975;DHT22;6115;49.296;10.602;2022-08-07T06:36:41;15.40;49.20
975;DHT22;6115;49.296;10.602;2022-08-07T06:41:45;15.60;48.90
975;DHT22;6115;49.296;10.602;2022-08-07T06:46:47;15.90;47.70
975;DHT22;6115;49.296;10.602;2022-08-07T06:51:48;16.10;46.70
975;DHT22;6115;49.296;10.602;2022-08-07T06:56:49;16.40;46.90
975;DHT22;6115;49.296;10.602;2022-08-07T07:01:50;16.70;46.10
975;DHT22;6115;49.296;10.602;2022-08-07T07:06:52;17.00;45.10
975;DHT22;6115;49.296;10.602;2022-08-07T07:17:14;17.70;44.30
975;DHT22;6115;49.296;10.602;2022-08-07T07:22:16;18.00;43.30
975;DHT22;6115;49.296;10.602;2022-08-07T07:27:20;18.30;42.00
975;DHT22;6115;49.296;10.602;2022-08-07T07:32:23;18.60;40.90
975;DHT22;6115;49.296;10.602;2022-08-07T07:37:26;18.80;40.10
975;DHT22;6115;49.296;10.602;2022-08-07T07:42:29;19.10;39.90
975;DHT22;6115;49.296;10.602;2022-08-07T07:47:35;19.30;39.80
975;DHT22;6115;49.296;10.602;2022-08-07T07:52:37;19.60;38.00
975;DHT22;6115;49.296;10.602;2022-08-07T07:57:39;19.90;37.80
975;DHT22;6115;49.296;10.602;2022-08-07T08:02:41;20.10;36.50
975;DHT22;6115;49.296;10.602;2022-08-07T08:07:43;20.40;36.20
975;DHT22;6115;49.296;10.602;2022-08-07T08:12:45;20.60;35.80
975;DHT22;6115;49.296;10.602;2022-08-07T08:17:47;20.80;34.70
975;DHT22;6115;49.296;10.602;2022-08-07T08:22:49;21.10;34.50
975;DHT22;6115;49.296;10.602;2022-08-07T08:28:14;21.30;33.90
975;DHT22;6115;49.296;10.602;2022-08-07T08:33:17;21.50;32.90
975;DHT22;6115;49.296;10.602;2022-08-07T08:38:22;21.50;32.30
975;DHT22;6115;49.296;10.602;2022-08-07T08:43:34;21.70;32.50
975;DHT22;6115;49.296;10.602;2022-08-07T08:53:53;22.00;32.80
975;DHT22;6115;49.296;10.602;2022-08-07T09:00:00;22.20;32.30
975;DHT22;6115;49.296;10.602;2022-08-07T09:04:57;22.60;30.60
975;DHT22;6115;49.296;10.602;2022-08-07T09:10:09;22.90;31.60
975;DHT22;6115;49.296;10.602;2022-08-07T09:15:36;23.10;30.90
975;DHT22;6115;49.296;10.602;2022-08-07T09:26:15;23.20;30.20
975;DHT22;6115;49.296;10.602;2022-08-07T09:36:37;23.90;29.10
975;DHT22;6115;49.296;10.602;2022-08-07T09:42:06;24.10;28.70
975;DHT22;6115;49.296;10.602;2022-08-07T09:52:41;24.90;27.40
975;DHT22;6115;49.296;10.602;2022-08-07T10:03:45;25.40;26.70
975;DHT22;6115;49.296;10.602;2022-08-07T10:09:17;25.70;26.80
975;DHT22;6115;49.296;10.602;2022-08-07T10:19:41;26.00;24.80
975;DHT22;6115;49.296;10.602;2022-08-07T10:30:07;26.70;24.20
975;DHT22;6115;49.296;10.602;2022-08-07T10:35:25;26.60;24.50
975;DHT22;6115;49.296;10.602;2022-08-07T10:40:32;26.60;25.20
975;DHT22;6115;49.296;10.602;2022-08-07T10:45:38;26.60;24.80
975;DHT22;6115;49.296;10.602;2022-08-07T10:50:53;26.70;24.70
975;DHT22;6115;49.296;10.602;2022-08-07T10:56:34;27.00;25.10
975;DHT22;6115;49.296;10.602;2022-08-07T11:01:48;27.20;24.80
975;DHT22;6115;49.296;10.602;2022-08-07T11:07:03;27.40;23.60
975;DHT22;6115;49.296;10.602;2022-08-07T11:12:17;27.60;23.60
975;DHT22;6115;49.296;10.602;2022-08-07T11:17:42;27.40;23.10
975;DHT22;6115;49.296;10.602;2022-08-07T11:23:02;27.60;23.30
975;DHT22;6115;49.296;10.602;2022-08-07T11:28:14;27.70;23.20
975;DHT22;6115;49.296;10.602;2022-08-07T11:34:03;27.70;22.60
975;DHT22;6115;49.296;10.602;2022-08-07T11:44:46;27.60;23.30
975;DHT22;6115;49.296;10.602;2022-08-07T11:50:22;27.80;22.00
975;DHT22;6115;49.296;10.602;2022-08-07T11:56:02;27.70;22.30
975;DHT22;6115;49.296;10.602;2022-08-07T12:06:33;28.10;22.70
975;DHT22;6115;49.296;10.602;2022-08-07T12:11:47;28.00;22.80
975;DHT22;6115;49.296;10.602;2022-08-07T12:17:02;27.80;23.00
975;DHT22;6115;49.296;10.602;2022-08-07T12:22:27;27.90;22.70
975;DHT22;6115;49.296;10.602;2022-08-07T12:27:41;27.60;23.00
975;DHT22;6115;49.296;10.602;2022-08-07T12:33:04;27.30;22.80
975;DHT22;6115;49.296;10.602;2022-08-07T12:38:07;27.80;22.30
975;DHT22;6115;49.296;10.602;2022-08-07T12:43:09;27.90;21.20
975;DHT22;6115;49.296;10.602;2022-08-07T12:48:15;27.90;21.70
975;DHT22;6115;49.296;10.602;2022-08-07T12:53:32;28.40;21.70
975;DHT22;6115;49.296;10.602;2022-08-07T12:58:37;28.90;20.50
975;DHT22;6115;49.296;10.602;2022-08-07T13:09:25;28.40;20.30
975;DHT22;6115;49.296;10.602;2022-08-07T13:14:45;28.70;19.90
975;DHT22;6115;49.296;10.602;2022-08-07T13:20:02;28.70;20.50
975;DHT22;6115;49.296;10.602;2022-08-07T13:25:09;29.20;19.50
975;DHT22;6115;49.296;10.602;2022-08-07T13:30:11;29.30;19.40
975;DHT22;6115;49.296;10.602;2022-08-07T13:35:35;29.70;19.90
975;DHT22;6115;49.296;10.602;2022-08-07T13:40:55;30.20;18.60
975;DHT22;6115;49.296;10.602;2022-08-07T13:45:59;30.70;18.40
975;DHT22;6115;49.296;10.602;2022-08-07T13:51:01;30.60;18.70
975;DHT22;6115;49.296;10.602;2022-08-07T13:56:03;30.60;18.60
975;DHT22;6115;49.296;10.602;2022-08-07T14:01:13;30.60;18.90
975;DHT22;6115;49.296;10.602;2022-08-07T14:06:14;31.90;17.90
975;DHT22;6115;49.296;10.602;2022-08-07T14:11:21;32.60;17.10
975;DHT22;6115;49.296;10.602;2022-08-07T14:16:32;32.60;16.70
975;DHT22;6115;49.296;10.602;2022-08-07T14:21:42;33.30;16.00
975;DHT22;6115;49.296;10.602;2022-08-07T14:26:49;33.30;15.80
975;DHT22;6115;49.296;10.602;2022-08-07T14:31:50;34.20;15.00
975;DHT22;6115;49.296;10.602;2022-08-07T14:36:52;35.00;15.50
975;DHT22;6115;49.296;10.602;2022-08-07T14:41:54;34.70;15.30
975;DHT22;6115;49.296;10.602;2022-08-07T14:46:57;35.00;14.40
975;DHT22;6115;49.296;10.602;2022-08-07T14:52:00;34.70;14.80
975;DHT22;6115;49.296;10.602;2022-08-07T14:57:05;33.70;14.80
975;DHT22;6115;49.296;10.602;2022-08-07T15:02:14;33.40;14.60
975;DHT22;6115;49.296;10.602;2022-08-07T15:07:21;33.20;14.50
975;DHT22;6115;49.296;10.602;2022-08-07T15:12:26;32.80;14.70
975;DHT22;6115;49.296;10.602;2022-08-07T15:17:30;32.90;14.80
975;DHT22;6115;49.296;10.602;2022-08-07T15:22:45;32.60;15.40
975;DHT22;6115;49.296;10.602;2022-08-07T15:27:50;31.80;16.20
975;DHT22;6115;49.296;10.602;2022-08-07T15:32:52;32.60;15.70
975;DHT22;6115;49.296;10.602;2022-08-07T15:37:58;32.70;15.10
975;DHT22;6115;49.296;10.602;2022-08-07T15:43:15;32.40;14.80
975;DHT22;6115;49.296;10.602;2022-08-07T15:48:29;32.20;15.20
975;DHT22;6115;49.296;10.602;2022-08-07T15:53:46;32.20;14.70
975;DHT22;6115;49.296;10.602;2022-08-07T15:58:51;32.30;14.70
975;DHT22;6115;49.296;10.602;2022-08-07T16:03:55;32.10;15.00
975;DHT22;6115;49.296;10.602;2022-08-07T16:09:03;31.80;15.20
975;DHT22;6115;49.296;10.602;2022-08-07T16:14:19;31.00;15.40
975;DHT22;6115;49.296;10.602;2022-08-07T16:19:43;30.40;15.50
975;DHT22;6115;49.296;10.602;2022-08-07T16:24:54;29.70;16.00
975;DHT22;6115;49.296;10.602;2022-08-07T16:30:08;29.20;16.60
975;DHT22;6115;49.296;10.602;2022-08-07T17:07:23;26.80;17.90
975;DHT22;6115;49.296;10.602;2022-08-07T17:12:40;26.60;18.10
975;DHT22;6115;49.296;10.602;2022-08-07T17:34:31;26.00;19.10
975;DHT22;6115;49.296;10.602;2022-08-07T17:39:54;25.80;19.70
975;DHT22;6115;49.296;10.602;2022-08-07T17:44:57;25.70;20.20
975;DHT22;6115;49.296;10.602;2022-08-07T17:49:59;25.60;21.20
975;DHT22;6115;49.296;10.602;2022-08-07T17:55:26;25.50;21.90
975;DHT22;6115;49.296;10.602;2022-08-07T18:00:29;25.40;22.30
975;DHT22;6115;49.296;10.602;2022-08-07T18:05:41;25.30;22.40
975;DHT22;6115;49.296;10.602;2022-08-07T18:16:38;25.10;23.00
975;DHT22;6115;49.296;10.602;2022-08-07T18:21:43;24.90;23.20
975;DHT22;6115;49.296;10.602;2022-08-07T18:38:04;24.50;24.00
975;DHT22;6115;49.296;10.602;2022-08-07T18:43:19;24.30;25.00
975;DHT22;6115;49.296;10.602;2022-08-07T18:48:42;24.10;24.90
975;DHT22;6115;49.296;10.602;2022-08-07T18:54:09;23.90;25.80
975;DHT22;6115;49.296;10.602;2022-08-07T18:59:38;23.70;26.20
975;DHT22;6115;49.296;10.602;2022-08-07T19:04:44;23.40;26.30
975;DHT22;6115;49.296;10.602;2022-08-07T19:10:05;23.10;27.20
975;DHT22;6115;49.296;10.602;2022-08-07T19:15:33;22.90;27.30
975;DHT22;6115;49.296;10.602;2022-08-07T19:20:48;22.70;27.80
975;DHT22;6115;49.296;10.602;2022-08-07T19:25:54;22.40;28.50
975;DHT22;6115;49.296;10.602;2022-08-07T19:31:11;22.10;28.80
975;DHT22;6115;49.296;10.602;2022-08-07T19:36:15;21.80;29.60
975;DHT22;6115;49.296;10.602;2022-08-07T19:41:20;21.60;29.90
975;DHT22;6115;49.296;10.602;2022-08-07T19:46:24;21.40;30.30
975;DHT22;6115;49.296;10.602;2022-08-07T19:51:25;21.10;30.60
975;DHT22;6115;49.296;10.602;2022-08-07T19:56:30;21.00;31.40
975;DHT22;6115;49.296;10.602;2022-08-07T20:01:36;20.60;31.90
975;DHT22;6115;49.296;10.602;2022-08-07T20:06:45;20.20;33.30
975;DHT22;6115;49.296;10.602;2022-08-07T20:11:48;20.00;34.00
975;DHT22;6115;49.296;10.602;2022-08-07T20:16:55;20.00;34.40
975;DHT22;6115;49.296;10.602;2022-08-07T20:21:56;19.80;34.80
975;DHT22;6115;49.296;10.602;2022-08-07T20:27:02;19.50;35.50
975;DHT22;6115;49.296;10.602;2022-08-07T20:32:08;19.30;36.40
975;DHT22;6115;49.296;10.602;2022-08-07T20:37:12;19.00;37.20
975;DHT22;6115;49.296;10.602;2022-08-07T20:42:13;19.00;37.50
975;DHT22;6115;49.296;10.602;2022-08-07T20:47:17;19.00;37.80
975;DHT22;6115;49.296;10.602;2022-08-07T20:52:21;18.90;37.80
975;DHT22;6115;49.296;10.602;2022-08-07T20:57:28;18.60;38.30
975;DHT22;6115;49.296;10.602;2022-08-07T21:02:30;18.20;39.10
975;DHT22;6115;49.296;10.602;2022-08-07T21:07:53;18.20;39.10
975;DHT22;6115;49.296;10.602;2022-08-07T21:12:57;18.10;39.00
975;DHT22;6115;49.296;10.602;2022-08-07T21:18:01;18.00;39.00
975;DHT22;6115;49.296;10.602;2022-08-07T21:28:59;17.60;40.40
975;DHT22;6115;49.296;10.602;2022-08-07T21:34:27;17.50;40.70
975;DHT22;6115;49.296;10.602;2022-08-07T21:39:57;17.40;41.10
975;DHT22;6115;49.296;10.602;2022-08-07T21:45:04;17.20;42.00
975;DHT22;6115;49.296;10.602;2022-08-07T22:01:08;16.50;43.40
975;DHT22;6115;49.296;10.602;2022-08-07T22:06:20;16.60;43.30
975;DHT22;6115;49.296;10.602;2022-08-07T22:11:25;16.60;43.60
975;DHT22;6115;49.296;10.602;2022-08-07T22:16:35;16.50;43.70
975;DHT22;6115;49.296;10.602;2022-08-07T22:21:53;16.30;43.90
975;DHT22;6115;49.296;10.602;2022-08-07T22:27:01;16.20;44.50
975;DHT22;6115;49.296;10.602;2022-08-07T22:32:06;15.80;45.40
975;DHT22;6115;49.296;10.602;2022-08-07T22:42:52;15.60;46.30
975;DHT22;6115;49.296;10.602;2022-08-07T22:48:14;15.70;46.40
975;DHT22;6115;49.296;10.602;2022-08-07T22:53:35;15.60;46.30
975;DHT22;6115;49.296;10.602;2022-08-07T23:10:19;15.20;47.10
975;DHT22;6115;49.296;10.602;2022-08-07T23:16:08;15.20;47.20
975;DHT22;6115;49.296;10.602;2022-08-07T23:21:26;15.20;47.00
975;DHT22;6115;49.296;10.602;2022-08-07T23:26:57;15.10;47.00
975;DHT22;6115;49.296;10.602;2022-08-07T23:53:48;14.80;48.30
975;DHT22;6115;49.296;10.602;2022-08-07T23:59:17;14.60;48.60
